Time;durP1;ratioP1;P1;durP2;ratioP2;P2;SDS_P1;SDS_P2;PMS_P1;PMS_P2;Temp;Humidity;BMP_temperature;BMP_pressure;BME280_temperature;BME280_humidity;BME280_pressure;Samples;Min_cycle;Max_cycle;Signal;HPM_P1;HPM_P2
2023/01/26 06:40:39;;;;;;;0.10;0.10;;;;;;;;;;6191588;23;20020;-89
2023/01/26 06:43:05;;;;;;;0.10;0.10;;;0.90;99.90;;;;;;6156268;23;20013;-88
2023/01/26 06:45:31;;;;;;;0.05;0.05;;;;;;;;;;6156452;23;20369;-88
2023/01/26 06:47:57;;;;;;;0.10;0.10;;;;;;;;;;6157054;23;20008;-87
2023/01/26 06:50:26;;;;;;;0.00;0.00;;;0.00;99.90;;;;;;6184076;23;20264;-87
2023/01/26 06:52:55;;;;;;;0.10;0.10;;;0.90;99.90;;;;;;6156846;23;20013;-87
2023/01/26 06:55:38;;;;;;;0.00;0.00;;;1.00;99.90;;;;;;6156576;23;20009;-87
2023/01/26 06:58:03;;;;;;;0.10;0.10;;;0.90;99.90;;;;;;6156914;23;20033;-87
2023/01/26 07:00:29;;;;;;;0.10;0.10;;;;;;;;;;6154970;23;20012;-87
2023/01/26 07:02:55;;;;;;;0.10;0.10;;;;;;;;;;6153541;23;20064;-87
2023/01/26 07:05:21;;;;;;;0.00;0.00;;;;;;;;;;6154204;23;20852;-88
2023/01/26 07:07:47;;;;;;;0.10;0.10;;;;;;;;;;6155516;23;20005;-87
2023/01/26 07:10:12;;;;;;;0.08;0.08;;;1.10;99.90;;;;;;6154333;23;20005;-86
2023/01/26 07:12:43;;;;;;;0.00;0.00;;;1.10;99.90;;;;;;6154652;23;20016;-87
2023/01/26 07:15:15;;;;;;;0.10;0.10;;;1.00;99.90;;;;;;6153914;23;20005;-87
2023/01/26 07:18:02;;;;;;;0.00;0.00;;;1.20;99.90;;;;;;6157658;23;20076;-87
2023/01/26 07:20:29;;;;;;;0.10;0.10;;;1.10;99.90;;;;;;6154629;23;20028;-87
2023/01/26 07:22:54;;;;;;;0.00;0.00;;;0.90;99.90;;;;;;6155715;23;20505;-87
2023/01/26 07:25:20;;;;;;;0.10;0.10;;;1.00;99.90;;;;;;6156841;23;20091;-87
2023/01/26 07:27:45;;;;;;;0.10;0.10;;;1.10;99.90;;;;;;6156444;23;20040;-87
2023/01/26 07:30:14;;;;;;;0.10;0.10;;;1.10;99.90;;;;;;6157083;23;20016;-87
2023/01/26 07:32:41;;;;;;;0.00;0.00;;;1.10;99.90;;;;;;6157459;23;20009;-87
2023/01/26 07:35:07;;;;;;;0.10;0.10;;;;;;;;;;6156246;23;20008;-87
2023/01/26 07:37:33;;;;;;;0.10;0.10;;;;;;;;;;6156355;23;20442;-87
2023/01/26 07:39:59;;;;;;;0.10;0.10;;;;;;;;;;6156140;23;20001;-87
2023/01/26 07:42:25;;;;;;;0.10;0.10;;;;;;;;;;6154200;23;20013;-87
2023/01/26 07:44:51;;;;;;;0.10;0.10;;;;;;;;;;6154781;23;20055;-87
2023/01/26 07:47:18;;;;;;;0.10;0.10;;;;;;;;;;6156445;23;20389;-87
2023/01/26 07:49:45;;;;;;;0.10;0.10;;;;;;;;;;6156228;23;20013;-88
2023/01/26 07:52:11;;;;;;;0.10;0.10;;;;;;;;;;6155760;23;20036;-87
2023/01/26 07:54:37;;;;;;;0.10;0.10;;;;;;;;;;6155445;23;20001;-88
2023/01/26 07:57:05;;;;;;;0.10;0.10;;;1.20;99.90;;;;;;6156065;23;20012;-87
2023/01/26 07:59:31;;;;;;;0.10;0.10;;;;;;;;;;6156902;23;20315;-87
2023/01/26 08:01:57;;;;;;;0.00;0.00;;;;;;;;;;6152833;23;20138;-87
2023/01/26 08:04:23;;;;;;;0.10;0.10;;;;;;;;;;6152836;23;20009;-87
2023/01/26 08:06:50;;;;;;;0.10;0.10;;;1.20;99.90;;;;;;6155593;23;20143;-87
2023/01/26 08:09:17;;;;;;;0.10;0.10;;;;;;;;;;6155189;23;20009;-88
2023/01/26 08:11:43;;;;;;;0.10;0.10;;;;;;;;;;6154357;23;20004;-86
2023/01/26 08:14:08;;;;;;;0.10;0.10;;;;;;;;;;6156449;23;20012;-87
2023/01/26 08:16:34;;;;;;;0.10;0.10;;;;;;;;;;6153706;23;20088;-87
2023/01/26 08:19:01;;;;;;;0.10;0.10;;;1.40;99.90;;;;;;6181452;23;20076;-87
2023/01/26 08:21:27;;;;;;;0.00;0.00;;;1.50;99.90;;;;;;6156250;23;20009;-87
2023/01/26 08:23:52;;;;;;;0.10;0.10;;;1.50;99.90;;;;;;6156622;23;20139;-87
2023/01/26 08:26:19;;;;;;;0.10;0.10;;;1.50;99.90;;;;;;6157560;23;20016;-87
2023/01/26 08:28:45;;;;;;;0.10;0.10;;;1.60;99.90;;;;;;6156884;23;20438;-87
2023/01/26 08:31:18;;;;;;;0.10;0.10;;;2.20;99.90;;;;;;6182186;23;20013;-87
2023/01/26 08:33:44;;;;;;;0.10;0.10;;;1.50;99.90;;;;;;6156260;23;20005;-88
2023/01/26 08:36:12;;;;;;;0.10;0.10;;;1.50;99.90;;;;;;6156438;23;20399;-87
2023/01/26 08:38:37;;;;;;;0.10;0.10;;;1.60;99.90;;;;;;6154821;23;20089;-87
2023/01/26 08:41:03;;;;;;;0.10;0.10;;;1.60;99.90;;;;;;6156539;23;20036;-87
2023/01/26 08:43:29;;;;;;;0.10;0.10;;;;;;;;;;6150361;23;19997;-89
2023/01/26 08:45:56;;;;;;;0.10;0.10;;;;;;;;;;6154337;23;20449;-87
2023/01/26 08:48:22;;;;;;;0.10;0.10;;;;;;;;;;6151787;23;20013;-87
2023/01/26 08:50:52;;;;;;;0.10;0.10;;;1.60;99.90;;;;;;6177185;23;20500;-88
2023/01/26 08:53:17;;;;;;;0.10;0.10;;;;;;;;;;6153250;23;20335;-89
2023/01/26 08:55:43;;;;;;;0.10;0.10;;;;;;;;;;6155668;23;20012;-88
2023/01/26 08:58:09;;;;;;;0.03;0.03;;;;;;;;;;6154603;23;20001;-88
2023/01/26 09:00:36;;;;;;;0.10;0.10;;;;;;;;;;6153578;23;20385;-86
2023/01/26 09:03:03;;;;;;;0.10;0.10;;;1.70;99.90;;;;;;6154680;23;20020;-87
2023/01/26 09:05:34;;;;;;;0.10;0.10;;;1.70;99.90;;;;;;6153253;23;20001;-87
2023/01/26 09:08:00;;;;;;;0.10;0.10;;;;;;;;;;6153570;23;20238;-87
2023/01/26 09:10:26;;;;;;;0.10;0.10;;;;;;;;;;6179298;23;20009;-88
2023/01/26 09:12:52;;;;;;;0.10;0.10;;;1.90;99.90;;;;;;6153815;23;20009;-88
2023/01/26 09:15:18;;;;;;;0.10;0.10;;;;;;;;;;6154160;23;20001;-88
2023/01/26 09:17:43;;;;;;;0.10;0.10;;;;;;;;;;6183867;23;20001;-88
2023/01/26 09:20:10;;;;;;;0.10;0.10;;;2.10;99.90;;;;;;6155518;23;20011;-88
2023/01/26 09:22:36;;;;;;;0.10;0.10;;;2.10;99.90;;;;;;6154720;23;20409;-88
2023/01/26 09:25:02;;;;;;;0.10;0.10;;;;;;;;;;6157890;23;20005;-88
2023/01/26 09:27:27;;;;;;;0.10;0.10;;;2.00;99.90;;;;;;6155233;23;20020;-89
2023/01/26 09:29:54;;;;;;;0.10;0.10;;;;;;;;;;6159437;23;20009;-87
2023/01/26 09:32:20;;;;;;;0.10;0.10;;;2.20;99.90;;;;;;6154049;23;20005;-89
2023/01/26 09:34:46;;;;;;;0.10;0.10;;;;;;;;;;6158067;23;20056;-89
2023/01/26 09:37:12;;;;;;;0.10;0.10;;;2.20;99.90;;;;;;6164260;23;20539;-89
2023/01/26 09:39:37;;;;;;;0.10;0.10;;;2.20;99.90;;;;;;6161787;23;20167;-89
2023/01/26 09:42:38;;;;;;;0.10;0.10;;;2.20;99.90;;;;;;6160169;23;20452;-89
2023/01/26 09:45:12;;;;;;;0.10;0.10;;;2.30;99.90;;;;;;6164441;23;20452;-90
2023/01/26 09:47:52;;;;;;;0.10;0.10;;;2.30;99.90;;;;;;6163558;23;20001;-89
2023/01/26 09:50:23;;;;;;;0.20;0.20;;;2.40;99.90;;;;;;6164630;23;20016;-90
2023/01/26 09:52:57;;;;;;;0.10;0.10;;;2.40;99.90;;;;;;6163611;23;20065;-88
2023/01/26 09:55:24;;;;;;;0.10;0.10;;;2.20;99.90;;;;;;6165462;23;20008;-89
2023/01/26 09:58:00;;;;;;;0.10;0.10;;;1.90;99.90;;;;;;6160001;23;20016;-90
2023/01/26 10:00:38;;;;;;;0.10;0.10;;;2.00;99.90;;;;;;6162388;23;20020;-89
2023/01/26 10:03:18;;;;;;;0.10;0.10;;;2.10;99.90;;;;;;6165492;23;20040;-90
2023/01/26 10:06:00;;;;;;;0.10;0.10;;;2.20;99.90;;;;;;6162340;23;20008;-89
2023/01/26 10:08:26;;;;;;;0.20;0.20;;;2.20;99.90;;;;;;6164259;23;20079;-90
2023/01/26 10:11:01;;;;;;;0.08;0.08;;;2.10;99.90;;;;;;6163120;23;20529;-89
2023/01/26 10:13:27;;;;;;;0.10;0.10;;;;;;;;;;6158822;23;20005;-89
2023/01/26 10:15:58;;;;;;;0.10;0.10;;;2.10;99.90;;;;;;6157850;23;20001;-89
2023/01/26 10:18:39;;;;;;;0.00;0.00;;;2.10;99.90;;;;;;6162842;23;20001;-89
2023/01/26 10:21:07;;;;;;;0.10;0.10;;;2.10;99.90;;;;;;6162263;23;20044;-89
2023/01/26 10:23:34;;;;;;;0.10;0.10;;;2.20;99.90;;;;;;6161092;23;20051;-88
2023/01/26 10:26:20;;;;;;;0.05;0.05;;;2.20;99.90;;;;;;6161408;23;20012;-90
2023/01/26 10:28:49;;;;;;;0.10;0.10;;;2.30;99.90;;;;;;6158810;23;20264;-90
2023/01/26 10:31:20;;;;;;;0.10;0.10;;;2.30;99.90;;;;;;6158078;23;20429;-89
2023/01/26 10:33:58;;;;;;;0.03;0.03;;;2.20;99.90;;;;;;6160094;23;20187;-92
2023/01/26 10:36:28;;;;;;;0.10;0.10;;;2.30;99.90;;;;;;6157270;23;20001;-90
2023/01/26 10:38:54;;;;;;;0.10;0.10;;;;;;;;;;6158461;23;20032;-89
2023/01/26 10:41:27;;;;;;;0.10;0.10;;;2.30;99.90;;;;;;6160777;23;20071;-88
2023/01/26 10:43:55;;;;;;;0.10;0.10;;;2.40;99.90;;;;;;6159752;23;20016;-90
2023/01/26 10:46:39;;;;;;;0.10;0.10;;;2.40;99.90;;;;;;6159620;23;20009;-89
2023/01/26 10:49:08;;;;;;;0.10;0.10;;;2.40;99.90;;;;;;6171937;23;20043;-90
2023/01/26 10:51:36;;;;;;;0.10;0.10;;;2.50;99.90;;;;;;6153668;23;20632;-89
2023/01/26 10:54:27;;;;;;;0.10;0.10;;;2.40;99.90;;;;;;6159349;23;20016;-89
2023/01/26 10:57:02;;;;;;;0.10;0.10;;;2.60;99.90;;;;;;6155469;23;20005;-89
2023/01/26 10:59:32;;;;;;;0.10;0.10;;;2.80;99.90;;;;;;6159817;23;20208;-89
2023/01/26 11:02:18;;;;;;;0.10;0.10;;;2.80;99.90;;;;;;6156665;23;20005;-88
2023/01/26 11:05:08;;;;;;;0.08;0.08;;;2.70;99.90;;;;;;6155130;23;20236;-89
2023/01/26 11:07:42;;;;;;;0.10;0.10;;;2.90;99.90;;;;;;6153868;23;20009;-90
2023/01/26 11:10:24;;;;;;;0.10;0.10;;;2.90;99.90;;;;;;6157096;23;20036;-89
2023/01/26 11:12:51;;;;;;;0.10;0.10;;;2.90;99.90;;;;;;6155468;23;20411;-90
2023/01/26 11:15:20;;;;;;;0.10;0.10;;;2.80;99.90;;;;;;6153682;23;20005;-89
2023/01/26 11:17:51;;;;;;;0.10;0.10;;;3.00;99.90;;;;;;6157181;23;20002;-89
2023/01/26 11:20:40;;;;;;;0.20;0.20;;;3.00;99.90;;;;;;6154911;23;20027;-88
2023/01/26 11:23:20;;;;;;;0.10;0.10;;;3.10;99.90;;;;;;6128975;23;20009;-88
2023/01/26 11:26:24;;;;;;;0.10;0.10;;;3.10;99.90;;;;;;6143531;23;20438;-90
2023/01/26 11:29:22;;;;;;;0.10;0.10;;;3.00;99.90;;;;;;6156574;23;20004;-90
2023/01/26 11:32:09;;;;;;;0.10;0.10;;;3.00;99.90;;;;;;6162103;23;20105;-89
2023/01/26 11:34:38;;;;;;;0.10;0.10;;;2.90;99.90;;;;;;6157714;23;20560;-91
2023/01/26 11:37:21;;;;;;;0.10;0.10;;;2.80;99.90;;;;;;6156495;23;20006;-90
2023/01/26 11:40:29;;;;;;;0.10;0.10;;;2.80;99.90;;;;;;6153862;23;20051;-88
2023/01/26 11:43:21;;;;;;;0.10;0.10;;;3.00;99.90;;;;;;6138613;23;20270;-89
2023/01/26 11:46:08;;;;;;;0.10;0.10;;;2.90;99.90;;;;;;6158299;23;20008;-90
2023/01/26 11:48:55;;;;;;;0.10;0.10;;;2.90;99.90;;;;;;6159101;23;20040;-89
2023/01/26 11:51:41;;;;;;;0.10;0.10;;;2.90;99.90;;;;;;6159395;23;20024;-89
2023/01/26 11:54:18;;;;;;;0.10;0.10;;;2.80;99.90;;;;;;6157596;23;20017;-90
2023/01/26 11:57:26;;;;;;;0.03;0.03;;;2.50;99.90;;;;;;6154765;23;20759;-90
2023/01/26 12:00:04;;;;;;;0.10;0.10;;;2.70;99.90;;;;;;6134754;23;20072;-90
2023/01/26 12:02:33;;;;;;;0.10;0.10;;;2.80;99.90;;;;;;6157501;23;20008;-92
2023/01/26 12:05:25;;;;;;;0.10;0.10;;;2.70;99.90;;;;;;6157791;23;20013;-91
2023/01/26 12:08:10;;;;;;;0.10;0.10;;;2.90;99.90;;;;;;6161690;23;20009;-88
2023/01/26 12:10:46;;;;;;;0.10;0.10;;;2.80;99.90;;;;;;6165322;23;20015;-89
2023/01/26 12:13:21;;;;;;;0.10;0.10;;;2.80;99.90;;;;;;6160072;23;20005;-89
2023/01/26 12:15:53;;;;;;;0.10;0.10;;;2.50;99.90;;;;;;6160570;23;20028;-90
2023/01/26 12:18:28;;;;;;;0.10;0.10;;;2.50;99.90;;;;;;6160603;23;19997;-90
2023/01/26 12:20:59;;;;;;;0.10;0.10;;;2.70;99.90;;;;;;6160614;23;20028;-90
2023/01/26 12:23:52;;;;;;;0.00;0.00;;;2.70;99.90;;;;;;6162164;23;20008;-90
2023/01/26 12:26:21;;;;;;;0.10;0.10;;;2.70;99.90;;;;;;6166882;23;20001;-89
2023/01/26 12:29:20;;;;;;;0.10;0.10;;;2.70;99.90;;;;;;6159475;23;20115;-87
2023/01/26 12:32:07;;;;;;;0.10;0.10;;;2.70;99.90;;;;;;6159663;23;20009;-87
2023/01/26 12:34:33;;;;;;;0.10;0.10;;;;;;;;;;6160978;23;20001;-89
2023/01/26 12:37:36;;;;;;;0.10;0.10;;;2.80;99.90;;;;;;6160197;23;20585;-88
2023/01/26 12:40:15;;;;;;;0.10;0.10;;;2.90;99.90;;;;;;6159995;23;20079;-88
2023/01/26 12:42:57;;;;;;;0.10;0.10;;;3.00;99.90;;;;;;6156502;23;20523;-87
2023/01/26 12:45:39;;;;;;;0.10;0.10;;;3.00;99.90;;;;;;6160686;23;20292;-89
2023/01/26 12:48:20;;;;;;;0.03;0.03;;;3.10;99.90;;;;;;6159833;23;20013;-90
2023/01/26 12:50:55;;;;;;;0.00;0.00;;;3.00;99.90;;;;;;6159628;23;20020;-89
